createdAt,value
2018-07-26T00:00:56.517Z,100263.00
2018-07-26T00:03:26.985Z,100259.00
2018-07-26T00:05:57.363Z,100259.00
2018-07-26T00:08:27.794Z,100250.00
2018-07-26T00:10:59.228Z,100257.00
2018-07-26T00:13:29.285Z,100253.00
2018-07-26T00:15:59.474Z,100248.00
2018-07-26T00:18:29.614Z,100252.00
2018-07-26T00:20:59.717Z,100249.00
2018-07-26T00:23:30.085Z,100251.00
2018-07-26T00:26:00.428Z,100248.00
2018-07-26T00:28:31.541Z,100247.00
2018-07-26T00:31:01.868Z,100245.00
2018-07-26T00:33:33.330Z,100242.00
2018-07-26T00:36:03.763Z,100241.00
2018-07-26T00:38:34.064Z,100239.00
2018-07-26T00:41:11.126Z,100239.00
2018-07-26T00:43:41.300Z,100240.00
2018-07-26T00:46:12.185Z,100237.00
2018-07-26T00:48:42.427Z,100230.00
2018-07-26T00:51:12.538Z,100226.00
2018-07-26T00:53:42.806Z,100233.00
2018-07-26T00:56:12.963Z,100230.00
2018-07-26T00:58:43.709Z,100220.00
2018-07-26T01:01:14.076Z,100229.00
2018-07-26T01:03:44.166Z,100227.00
2018-07-26T01:06:14.562Z,100224.00
2018-07-26T01:08:44.740Z,100233.00
2018-07-26T01:11:15.116Z,100219.00
2018-07-26T01:13:45.183Z,100213.00
2018-07-26T01:16:15.806Z,100215.00
2018-07-26T01:18:46.474Z,100226.00
2018-07-26T01:21:17.125Z,100207.00
2018-07-26T01:23:47.170Z,100212.00
2018-07-26T01:26:17.267Z,100211.00
2018-07-26T01:28:47.995Z,100208.00
2018-07-26T01:31:18.394Z,100212.00
2018-07-26T01:33:48.496Z,100212.00
2018-07-26T01:36:18.765Z,100210.00
2018-07-26T01:38:48.821Z,100199.00
2018-07-26T01:41:19.520Z,100196.00
2018-07-26T01:44:06.283Z,100196.00
2018-07-26T01:46:36.568Z,100200.00
2018-07-26T01:49:06.849Z,100203.00
2018-07-26T01:51:36.901Z,100210.00
2018-07-26T01:54:08.279Z,100208.00
2018-07-26T01:56:38.774Z,100194.00
2018-07-26T01:59:08.756Z,100199.00
2018-07-26T02:01:39.307Z,100194.00
2018-07-26T02:04:09.520Z,100196.00
2018-07-26T02:06:39.692Z,100200.00
2018-07-26T02:09:11.394Z,100195.00
2018-07-26T02:11:42.078Z,100196.00
2018-07-26T02:14:17.655Z,100188.00
2018-07-26T02:16:47.415Z,100181.00
2018-07-26T02:19:17.551Z,100183.00
2018-07-26T02:21:47.622Z,100182.00
2018-07-26T02:24:18.114Z,100179.00
2018-07-26T02:26:48.553Z,100171.00
2018-07-26T02:29:18.912Z,100170.00
2018-07-26T02:31:49.224Z,100163.00
2018-07-26T02:34:19.293Z,100162.00
2018-07-26T02:36:49.346Z,100162.00
2018-07-26T02:39:19.744Z,100161.00
2018-07-26T02:41:49.963Z,100163.00
2018-07-26T02:44:20.268Z,100163.00
2018-07-26T02:46:50.737Z,100157.00
2018-07-26T02:49:28.316Z,100160.00
2018-07-26T02:51:58.491Z,100159.00
2018-07-26T02:54:28.911Z,100154.00
2018-07-26T02:56:58.980Z,100153.00
2018-07-26T02:59:29.253Z,100162.00
2018-07-26T03:02:00.013Z,100157.00
2018-07-26T03:04:30.300Z,100158.00
2018-07-26T03:07:00.806Z,100149.00
2018-07-26T03:09:31.005Z,100144.00
2018-07-26T03:12:01.201Z,100146.00
2018-07-26T03:14:35.531Z,100150.00
2018-07-26T03:17:05.686Z,100144.00
2018-07-26T03:19:35.812Z,100148.00
2018-07-26T03:22:06.258Z,100154.00
2018-07-26T03:24:36.233Z,100146.00
2018-07-26T03:27:06.744Z,100146.00
2018-07-26T03:29:40.810Z,100146.00
2018-07-26T03:32:11.382Z,100147.00
2018-07-26T03:34:42.735Z,100142.00
2018-07-26T03:37:13.466Z,100147.00
2018-07-26T03:39:44.068Z,100141.00
2018-07-26T03:42:15.491Z,100131.00
2018-07-26T03:44:46.608Z,100141.00
2018-07-26T03:47:16.880Z,100143.00
2018-07-26T03:49:47.057Z,100135.00
2018-07-26T03:52:17.389Z,100140.00
2018-07-26T03:54:47.516Z,100141.00
2018-07-26T03:57:17.732Z,100139.00
2018-07-26T03:59:48.064Z,100141.00
2018-07-26T04:02:18.271Z,100135.00
2018-07-26T04:04:48.405Z,100144.00
2018-07-26T04:07:18.893Z,100127.00
2018-07-26T04:09:48.832Z,100129.00
2018-07-26T04:12:18.861Z,100128.00
2018-07-26T04:14:50.862Z,100130.00
2018-07-26T04:17:21.669Z,100123.00
2018-07-26T04:19:51.860Z,100123.00
2018-07-26T04:22:21.903Z,100123.00
2018-07-26T04:24:52.980Z,100121.00
2018-07-26T04:27:23.574Z,100121.00
2018-07-26T04:29:54.094Z,100122.00
2018-07-26T04:32:24.653Z,100123.00
2018-07-26T04:34:57.837Z,100121.00
2018-07-26T04:37:28.065Z,100119.00
2018-07-26T04:39:58.311Z,100119.00
2018-07-26T04:42:28.508Z,100118.00
2018-07-26T04:44:58.790Z,100114.00
2018-07-26T04:47:28.885Z,100117.00
2018-07-26T04:49:58.857Z,100120.00
2018-07-26T04:52:29.662Z,100121.00
2018-07-26T04:54:59.936Z,100118.00
2018-07-26T04:57:29.951Z,100123.00
2018-07-26T05:00:00.199Z,100134.00
2018-07-26T05:02:30.427Z,100127.00
2018-07-26T05:05:00.487Z,100127.00
2018-07-26T05:07:30.841Z,100128.00
2018-07-26T05:10:00.933Z,100133.00
2018-07-26T05:12:31.309Z,100133.00
2018-07-26T05:15:01.527Z,100137.00
2018-07-26T05:17:31.564Z,100136.00
2018-07-26T05:20:01.976Z,100135.00
2018-07-26T05:22:32.059Z,100128.00
2018-07-26T05:25:02.377Z,100130.00
2018-07-26T05:27:32.833Z,100125.00
2018-07-26T05:30:03.549Z,100133.00
2018-07-26T05:32:34.146Z,100122.00
2018-07-26T05:35:04.769Z,100132.00
2018-07-26T05:37:35.362Z,100133.00
2018-07-26T05:40:06.054Z,100127.00
2018-07-26T05:42:36.709Z,100132.00
2018-07-26T05:45:07.340Z,100138.00
2018-07-26T05:47:37.977Z,100136.00
2018-07-26T05:50:08.763Z,100146.00
2018-07-26T05:52:39.462Z,100141.00
2018-07-26T05:55:10.917Z,100135.00
2018-07-26T05:57:41.157Z,100141.00
2018-07-26T06:00:13.575Z,100139.00
2018-07-26T06:02:45.215Z,100129.00
2018-07-26T06:05:16.057Z,100133.00
2018-07-26T06:07:46.343Z,100133.00
2018-07-26T06:10:16.521Z,100136.00
2018-07-26T06:12:46.782Z,100132.00
2018-07-26T06:15:16.940Z,100128.00
2018-07-26T06:17:47.322Z,100131.00
2018-07-26T06:20:17.691Z,100132.00
2018-07-26T06:22:47.835Z,100132.00
2018-07-26T06:25:18.193Z,100132.00
2018-07-26T06:27:48.334Z,100134.00
2018-07-26T06:30:18.738Z,100135.00
2018-07-26T06:32:49.153Z,100138.00
2018-07-26T06:35:19.899Z,100139.00
2018-07-26T06:37:50.130Z,100123.00
2018-07-26T06:40:20.426Z,100136.00
2018-07-26T06:42:50.678Z,100122.00
2018-07-26T06:45:21.865Z,100129.00
2018-07-26T06:47:52.010Z,100120.00
2018-07-26T06:50:22.925Z,100117.00
2018-07-26T06:52:53.868Z,100117.00
2018-07-26T06:55:24.245Z,100107.00
2018-07-26T06:57:54.328Z,100111.00
2018-07-26T07:00:24.940Z,100108.00
2018-07-26T07:02:56.040Z,100094.00
2018-07-26T07:05:26.313Z,100112.00
2018-07-26T07:07:56.594Z,100108.00
2018-07-26T07:10:33.225Z,100102.00
2018-07-26T07:13:03.641Z,100094.00
2018-07-26T07:15:33.940Z,100092.00
2018-07-26T07:18:04.311Z,100103.00
2018-07-26T07:20:34.899Z,100087.00
2018-07-26T07:23:05.750Z,100094.00
2018-07-26T07:25:36.299Z,100086.00
2018-07-26T07:28:07.119Z,100094.00
2018-07-26T07:30:37.780Z,100092.00
2018-07-26T07:33:08.022Z,100092.00
2018-07-26T07:35:38.166Z,100105.00
2018-07-26T07:38:08.375Z,100102.00
2018-07-26T07:40:38.832Z,100097.00
2018-07-26T07:43:09.940Z,100106.00
2018-07-26T07:45:40.926Z,100103.00
2018-07-26T07:48:11.096Z,100102.00
2018-07-26T07:50:41.317Z,100106.00
2018-07-26T07:53:12.097Z,100105.00
2018-07-26T07:55:42.166Z,100114.00
2018-07-26T07:58:12.534Z,100109.00
2018-07-26T08:00:42.617Z,100111.00
2018-07-26T08:03:12.735Z,100112.00
2018-07-26T08:05:43.055Z,100115.00
2018-07-26T08:08:13.562Z,100118.00
2018-07-26T08:10:43.920Z,100109.00
2018-07-26T08:13:14.067Z,100113.00
2018-07-26T08:15:44.828Z,100106.00
2018-07-26T08:18:15.049Z,100099.00
2018-07-26T08:20:45.475Z,100104.00
2018-07-26T08:23:16.121Z,100105.00
2018-07-26T08:25:46.554Z,100107.00
2018-07-26T08:28:17.991Z,100099.00
2018-07-26T08:30:48.482Z,100094.00
2018-07-26T08:33:19.248Z,100090.00
2018-07-26T08:35:50.156Z,100089.00
2018-07-26T08:38:20.547Z,100084.00
2018-07-26T08:40:50.690Z,100088.00
2018-07-26T08:43:21.285Z,100075.00
2018-07-26T08:45:51.634Z,100083.00
2018-07-26T08:48:21.638Z,100074.00
2018-07-26T08:50:51.812Z,100076.00
2018-07-26T08:53:21.932Z,100065.00
2018-07-26T08:55:52.238Z,100059.00
2018-07-26T08:58:22.341Z,100055.00
2018-07-26T09:00:53.102Z,100055.00
2018-07-26T09:03:24.071Z,100053.00
2018-07-26T09:05:55.530Z,100062.00
2018-07-26T09:08:26.189Z,100047.00
2018-07-26T09:10:57.521Z,100053.00
2018-07-26T09:13:27.980Z,100054.00
2018-07-26T09:15:58.196Z,100048.00
2018-07-26T09:18:28.710Z,100043.00
2018-07-26T09:20:59.380Z,100047.00
2018-07-26T09:23:29.520Z,100037.00
2018-07-26T09:26:00.134Z,100040.00
2018-07-26T09:28:30.254Z,100041.00
2018-07-26T09:31:00.889Z,100038.00
2018-07-26T09:33:31.254Z,100030.00
2018-07-26T09:36:02.271Z,100032.00
2018-07-26T09:38:32.960Z,100026.00
2018-07-26T09:41:04.594Z,100033.00
2018-07-26T09:43:35.521Z,100028.00
2018-07-26T09:46:05.975Z,100027.00
2018-07-26T09:48:37.158Z,100026.00
2018-07-26T09:51:07.498Z,100027.00
2018-07-26T09:53:38.653Z,100034.00
2018-07-26T09:56:09.150Z,100032.00
2018-07-26T09:58:40.232Z,100032.00
2018-07-26T10:01:16.129Z,100026.00
2018-07-26T10:03:46.786Z,100026.00
2018-07-26T10:06:17.473Z,100023.00
2018-07-26T10:08:47.742Z,100027.00
2018-07-26T10:11:18.197Z,100025.00
2018-07-26T10:13:48.252Z,100035.00
2018-07-26T10:16:19.476Z,100024.00
2018-07-26T10:18:50.093Z,100029.00
2018-07-26T10:21:20.384Z,100029.00
2018-07-26T10:23:51.495Z,100016.00
2018-07-26T10:26:22.183Z,100011.00
2018-07-26T10:28:53.465Z,100015.00
2018-07-26T10:31:23.522Z,100011.00
2018-07-26T10:33:53.750Z,100008.00
2018-07-26T10:36:24.228Z,100010.00
2018-07-26T10:38:54.468Z,100008.00
2018-07-26T10:41:24.498Z,100004.00
2018-07-26T10:43:54.757Z,100007.00
2018-07-26T10:46:25.002Z,99994.00
2018-07-26T10:48:55.216Z,99998.00
2018-07-26T10:51:25.336Z,100001.00
2018-07-26T10:53:55.973Z,99997.00
2018-07-26T10:56:26.267Z,99988.00
2018-07-26T10:58:56.530Z,99986.00
2018-07-26T11:01:26.737Z,99989.00
2018-07-26T11:03:57.213Z,99981.00
2018-07-26T11:06:27.460Z,99971.00
2018-07-26T11:08:57.901Z,99977.00
2018-07-26T11:11:27.943Z,99967.00
2018-07-26T11:13:58.484Z,99969.00
2018-07-26T11:16:28.832Z,99962.00
2018-07-26T11:18:59.198Z,99963.00
2018-07-26T11:21:29.729Z,99958.00
2018-07-26T11:23:59.776Z,99968.00
2018-07-26T11:26:30.082Z,99950.00
2018-07-26T11:29:00.233Z,99956.00
2018-07-26T11:31:30.460Z,99956.00
2018-07-26T11:34:00.533Z,99952.00
2018-07-26T11:36:31.066Z,99943.00
2018-07-26T11:39:01.372Z,99948.00
2018-07-26T11:41:31.581Z,99948.00
2018-07-26T11:44:01.969Z,99942.00
2018-07-26T11:46:31.973Z,99945.00
2018-07-26T11:49:02.194Z,99938.00
2018-07-26T11:51:32.808Z,99933.00
2018-07-26T11:54:03.034Z,99930.00
2018-07-26T11:56:33.472Z,99925.00
2018-07-26T11:59:03.677Z,99922.00
2018-07-26T12:01:33.794Z,99921.00
2018-07-26T12:04:03.800Z,99917.00
2018-07-26T12:06:33.750Z,99914.00
2018-07-26T12:09:04.247Z,99913.00
2018-07-26T12:11:35.218Z,99915.00
2018-07-26T12:14:05.876Z,99915.00
2018-07-26T12:16:36.071Z,99911.00
2018-07-26T12:19:06.865Z,99916.00
2018-07-26T12:21:37.804Z,99916.00
2018-07-26T12:24:08.871Z,99902.00
2018-07-26T12:26:39.998Z,99900.00
2018-07-26T12:29:10.352Z,99897.00
2018-07-26T12:31:40.690Z,99893.00
2018-07-26T12:34:11.361Z,99887.00
2018-07-26T12:36:41.624Z,99892.00
2018-07-26T12:39:13.570Z,99884.00
2018-07-26T12:41:43.706Z,99886.00
2018-07-26T12:44:14.832Z,99867.00
2018-07-26T12:46:44.985Z,99879.00
2018-07-26T12:49:15.902Z,99878.00
2018-07-26T12:51:46.210Z,99871.00
2018-07-26T12:54:16.249Z,99869.00
2018-07-26T12:56:46.497Z,99868.00
2018-07-26T12:59:16.773Z,99870.00
2018-07-26T13:01:47.020Z,99871.00
2018-07-26T13:04:17.237Z,99863.00
2018-07-26T13:06:47.649Z,99862.00
2018-07-26T13:09:17.582Z,99864.00
2018-07-26T13:11:47.971Z,99855.00
2018-07-26T13:14:18.182Z,99848.00
2018-07-26T13:16:48.265Z,99850.00
2018-07-26T13:19:19.050Z,99844.00
2018-07-26T13:21:49.149Z,99843.00
2018-07-26T13:24:19.485Z,99841.00
2018-07-26T13:26:49.464Z,99847.00
2018-07-26T13:29:19.688Z,99848.00
2018-07-26T13:31:50.514Z,99837.00
2018-07-26T13:34:21.130Z,99826.00
2018-07-26T13:36:51.363Z,99824.00
2018-07-26T13:39:22.422Z,99823.00
2018-07-26T13:41:52.964Z,99821.00
2018-07-26T13:44:24.081Z,99818.00
2018-07-26T13:46:54.309Z,99806.00
2018-07-26T13:49:24.534Z,99807.00
2018-07-26T13:51:54.949Z,99795.00
2018-07-26T13:54:25.218Z,99811.00
2018-07-26T13:56:55.651Z,99801.00
2018-07-26T13:59:25.732Z,99794.00
2018-07-26T14:01:56.007Z,99792.00
2018-07-26T14:04:26.261Z,99789.00
2018-07-26T14:06:56.500Z,99797.00
2018-07-26T14:09:27.845Z,99788.00
2018-07-26T14:11:58.175Z,99790.00
2018-07-26T14:14:28.366Z,99789.00
2018-07-26T14:16:58.641Z,99784.00
2018-07-26T14:19:29.906Z,99776.00
2018-07-26T14:22:00.120Z,99785.00
2018-07-26T14:24:30.073Z,99777.00
2018-07-26T14:27:00.326Z,99774.00
2018-07-26T14:29:31.187Z,99759.00
2018-07-26T14:32:01.267Z,99766.00
2018-07-26T14:34:31.292Z,99744.00
2018-07-26T14:37:02.037Z,99744.00
2018-07-26T14:39:32.445Z,99739.00
2018-07-26T14:42:02.807Z,99738.00
2018-07-26T14:44:33.072Z,99751.00
2018-07-26T14:47:03.162Z,99742.00
2018-07-26T14:49:34.442Z,99755.00
2018-07-26T14:52:04.625Z,99745.00
2018-07-26T14:54:35.154Z,99753.00
2018-07-26T14:57:05.256Z,99739.00
2018-07-26T14:59:35.398Z,99744.00
2018-07-26T15:02:05.864Z,99746.00
2018-07-26T15:04:35.995Z,99739.00
2018-07-26T15:07:06.386Z,99728.00
2018-07-26T15:09:36.854Z,99739.00
2018-07-26T15:12:07.223Z,99734.00
2018-07-26T15:14:37.399Z,99730.00
2018-07-26T15:17:07.539Z,99709.00
2018-07-26T15:19:38.381Z,99721.00
2018-07-26T15:22:08.602Z,99717.00
2018-07-26T15:24:38.886Z,99721.00
2018-07-26T15:27:09.323Z,99720.00
2018-07-26T15:29:39.808Z,99712.00
2018-07-26T15:32:10.136Z,99708.00
2018-07-26T15:34:40.540Z,99712.00
2018-07-26T15:37:10.776Z,99708.00
2018-07-26T15:39:41.389Z,99697.00
2018-07-26T15:42:12.563Z,99699.00
2018-07-26T15:44:43.306Z,99706.00
2018-07-26T15:47:13.614Z,99702.00
2018-07-26T15:49:44.335Z,99710.00
2018-07-26T15:52:14.456Z,99684.00
2018-07-26T15:54:44.847Z,99712.00
2018-07-26T15:57:14.946Z,99715.00
2018-07-26T15:59:44.997Z,99708.00
2018-07-26T16:02:15.333Z,99707.00
2018-07-26T16:04:45.405Z,99708.00
2018-07-26T16:07:15.488Z,99701.00
2018-07-26T16:09:45.655Z,99692.00
2018-07-26T16:12:16.925Z,99682.00
2018-07-26T16:14:48.022Z,99677.00
2018-07-26T16:17:18.197Z,99679.00
2018-07-26T16:19:48.857Z,99697.00
2018-07-26T16:22:19.556Z,99675.00
2018-07-26T16:24:49.766Z,99695.00
2018-07-26T16:27:20.072Z,99694.00
2018-07-26T16:29:50.720Z,99682.00
2018-07-26T16:32:22.517Z,99678.00
2018-07-26T16:34:52.887Z,99685.00
2018-07-26T16:37:23.086Z,99689.00
2018-07-26T16:39:54.003Z,99681.00
2018-07-26T16:42:24.231Z,99680.00
2018-07-26T16:44:55.559Z,99680.00
2018-07-26T16:47:25.670Z,99679.00
2018-07-26T16:49:55.760Z,99679.00
2018-07-26T16:52:26.459Z,99685.00
2018-07-26T16:54:56.639Z,99684.00
2018-07-26T16:57:27.321Z,99679.00
2018-07-26T16:59:57.798Z,99673.00
2018-07-26T17:02:28.081Z,99659.00
2018-07-26T17:04:58.264Z,99667.00
2018-07-26T17:07:28.401Z,99684.00
2018-07-26T17:09:59.622Z,99673.00
2018-07-26T17:12:29.840Z,99675.00
2018-07-26T17:15:00.357Z,99678.00
2018-07-26T17:17:31.478Z,99661.00
2018-07-26T17:20:01.798Z,99672.00
2018-07-26T17:22:32.001Z,99663.00
2018-07-26T17:25:02.824Z,99668.00
2018-07-26T17:27:33.574Z,99660.00
2018-07-26T17:30:08.332Z,99668.00
2018-07-26T17:32:38.616Z,99651.00
2018-07-26T17:35:09.534Z,99660.00
2018-07-26T17:37:40.360Z,99659.00
2018-07-26T17:40:10.883Z,99658.00
2018-07-26T17:42:43.301Z,99659.00
2018-07-26T17:45:16.328Z,99659.00
2018-07-26T17:47:46.778Z,99672.00
2018-07-26T17:50:17.010Z,99681.00
2018-07-26T17:52:47.141Z,99674.00
2018-07-26T17:55:17.936Z,99666.00
2018-07-26T17:57:48.317Z,99672.00
2018-07-26T18:00:18.474Z,99670.00
2018-07-26T18:02:48.965Z,99677.00
2018-07-26T18:05:19.196Z,99689.00
2018-07-26T18:07:49.561Z,99689.00
2018-07-26T18:10:19.783Z,99696.00
2018-07-26T18:12:49.912Z,99691.00
2018-07-26T18:15:20.125Z,99692.00
2018-07-26T18:17:50.327Z,99689.00
2018-07-26T18:20:20.927Z,99694.00
2018-07-26T18:22:51.086Z,99697.00
2018-07-26T18:25:21.381Z,99695.00
2018-07-26T18:27:51.595Z,99695.00
2018-07-26T18:30:21.665Z,99698.00
2018-07-26T18:32:52.042Z,99699.00
2018-07-26T18:35:22.211Z,99706.00
2018-07-26T18:37:52.640Z,99709.00
2018-07-26T18:40:22.836Z,99714.00
2018-07-26T18:42:53.164Z,99717.00
2018-07-26T18:45:23.375Z,99712.00
2018-07-26T18:47:53.641Z,99711.00
2018-07-26T18:50:23.736Z,99732.00
2018-07-26T18:52:53.952Z,99726.00
2018-07-26T18:55:24.005Z,99727.00
2018-07-26T18:57:54.538Z,99726.00
2018-07-26T19:00:25.410Z,99727.00
2018-07-26T19:02:56.043Z,99724.00
2018-07-26T19:05:26.637Z,99731.00
2018-07-26T19:07:57.822Z,99733.00
2018-07-26T19:10:27.788Z,99741.00
2018-07-26T19:12:58.311Z,99731.00
2018-07-26T19:15:28.480Z,99731.00
2018-07-26T19:17:59.259Z,99739.00
2018-07-26T19:20:29.548Z,99744.00
2018-07-26T19:22:59.912Z,99732.00
2018-07-26T19:25:30.373Z,99730.00
2018-07-26T19:28:00.623Z,99740.00
2018-07-26T19:30:30.867Z,99739.00
2018-07-26T19:33:01.365Z,99743.00
2018-07-26T19:35:31.830Z,99741.00
2018-07-26T19:38:02.111Z,99737.00
2018-07-26T19:40:32.185Z,99739.00
2018-07-26T19:43:03.338Z,99744.00
2018-07-26T19:45:33.530Z,99743.00
2018-07-26T19:48:04.846Z,99744.00
2018-07-26T19:50:35.696Z,99745.00
2018-07-26T19:53:05.917Z,99745.00
2018-07-26T19:55:36.435Z,99756.00
2018-07-26T19:58:07.037Z,99752.00
2018-07-26T20:00:37.201Z,99758.00
2018-07-26T20:03:07.384Z,99755.00
2018-07-26T20:05:37.587Z,99758.00
2018-07-26T20:08:08.058Z,99760.00
2018-07-26T20:10:38.264Z,99765.00
2018-07-26T20:13:08.364Z,99770.00
2018-07-26T20:15:38.470Z,99768.00
2018-07-26T20:18:08.995Z,99769.00
2018-07-26T20:20:39.129Z,99762.00
2018-07-26T20:23:10.197Z,99720.00
2018-07-26T20:25:45.810Z,99763.00
2018-07-26T20:28:18.808Z,99771.00
2018-07-26T20:30:49.821Z,99771.00
2018-07-26T20:33:19.731Z,99773.00
2018-07-26T20:35:50.084Z,99783.00
2018-07-26T20:38:20.320Z,99784.00
2018-07-26T20:40:51.397Z,99791.00
2018-07-26T20:43:21.677Z,99787.00
2018-07-26T20:45:51.946Z,99779.00
2018-07-26T20:48:22.240Z,99783.00
2018-07-26T20:50:52.389Z,99790.00
2018-07-26T20:53:22.918Z,99788.00
2018-07-26T20:55:53.241Z,99782.00
2018-07-26T20:58:23.232Z,99788.00
2018-07-26T21:00:53.668Z,99789.00
2018-07-26T21:03:23.702Z,99792.00
2018-07-26T21:05:53.963Z,99792.00
2018-07-26T21:08:24.562Z,99800.00
2018-07-26T21:10:55.318Z,99791.00
2018-07-26T21:13:25.720Z,99806.00
2018-07-26T21:15:55.926Z,99804.00
2018-07-26T21:18:26.154Z,99797.00
2018-07-26T21:20:56.296Z,99802.00
2018-07-26T21:23:26.965Z,99807.00
2018-07-26T21:25:57.363Z,99808.00
2018-07-26T21:28:27.470Z,99805.00
2018-07-26T21:30:57.823Z,99800.00
2018-07-26T21:33:28.046Z,99801.00
2018-07-26T21:35:58.158Z,99800.00
2018-07-26T21:38:28.407Z,99807.00
2018-07-26T21:40:59.849Z,99812.00
2018-07-26T21:43:30.211Z,99807.00
2018-07-26T21:46:00.759Z,99822.00
2018-07-26T21:48:31.353Z,99808.00
2018-07-26T21:51:02.169Z,99803.00
2018-07-26T21:53:32.548Z,99802.00
2018-07-26T21:56:03.151Z,99813.00
2018-07-26T21:58:33.393Z,99820.00
2018-07-26T22:01:04.101Z,99796.00
2018-07-26T22:03:34.485Z,99819.00
2018-07-26T22:06:04.875Z,99812.00
2018-07-26T22:08:35.545Z,99804.00
2018-07-26T22:11:05.628Z,99813.00
2018-07-26T22:13:36.164Z,99811.00
2018-07-26T22:16:06.526Z,99798.00
2018-07-26T22:18:37.748Z,99799.00
2018-07-26T22:21:08.185Z,99803.00
2018-07-26T22:23:38.864Z,99793.00
2018-07-26T22:26:09.650Z,99797.00
2018-07-26T22:28:40.375Z,99787.00
2018-07-26T22:31:10.715Z,99785.00
2018-07-26T22:33:41.053Z,99788.00
2018-07-26T22:36:11.946Z,99793.00
2018-07-26T22:38:42.097Z,99788.00
2018-07-26T22:41:13.170Z,99799.00
2018-07-26T22:43:43.506Z,99791.00
2018-07-26T22:46:14.216Z,99799.00
2018-07-26T22:48:44.698Z,99796.00
2018-07-26T22:51:15.044Z,99806.00
2018-07-26T22:53:45.880Z,99808.00
2018-07-26T22:56:16.137Z,99809.00
2018-07-26T22:58:46.776Z,99820.00
2018-07-26T23:01:16.842Z,99826.00
2018-07-26T23:03:47.326Z,99818.00
2018-07-26T23:06:19.478Z,99823.00
2018-07-26T23:08:49.565Z,99828.00
2018-07-26T23:11:20.836Z,99829.00
2018-07-26T23:13:51.358Z,99817.00
2018-07-26T23:16:23.100Z,99826.00
2018-07-26T23:18:54.322Z,99824.00
2018-07-26T23:21:25.537Z,99824.00
2018-07-26T23:23:56.129Z,99824.00
2018-07-26T23:26:27.617Z,99811.00
2018-07-26T23:28:58.316Z,99825.00
2018-07-26T23:31:28.552Z,99821.00
2018-07-26T23:34:00.776Z,99817.00
2018-07-26T23:36:32.179Z,99806.00
2018-07-26T23:39:02.506Z,99806.00
2018-07-26T23:41:33.524Z,99812.00
2018-07-26T23:44:04.838Z,99813.00
2018-07-26T23:46:34.927Z,99812.00
2018-07-26T23:49:05.577Z,99812.00
2018-07-26T23:54:03.549Z,99797.00
2018-07-26T23:56:36.984Z,99803.00
2018-07-26T23:59:07.157Z,99803.00
